Terminal Aerodrome Forecast
Issued by NWS

Home | Current Version | Previous Version | Text Only | Print | Product List | Glossary Off
Versions: 1 2 3 4 5 6 7 8 9 10 11 12 13

000
FTUS45 KGGW 232320
TAFOLF
TAF
KOLF 232320Z 2400/2424 26017G25KT P6SM SCT070
     FM240300 26007KT P6SM BKN080
     FM241500 26007KT P6SM OVC030
     FM241800 25011KT P6SM BKN045=

USA.gov is the U.S. government's official web portal to all federal, state and local government web resources and services.